Terminal Aerodrome Forecast
Issued by NWS

Home | Current Version | Previous Version | Text Only | Print | Product List | Glossary On
Versions: 1 2 3 4 5 6 7 8 9 10 11 12 13 14 15 16 17 18 19 20 21 22 23 24 25 26
373
FTUS42 KJAX 070031 AAA
TAFVQQ
TAF AMD
KVQQ 070031Z 0701/0724 36012KT 2SM -RA BR BKN002 OVC006
     FM070400 34012KT 5SM -RA BR OVC008
     FM071300 32017G25KT P6SM VCSH SCT007 OVC015
     FM071500 32015G23KT P6SM SCT015 BKN025
     FM072000 31015G25KT P6SM SCT040=

USA.gov is the U.S. government's official web portal to all federal, state and local government web resources and services.